sensor_id;sensor_type;location;lat;lon;timestamp;P1;durP1;ratioP1;P2;durP2;ratioP2
239;SDS011;104;53.590;10.004;2024-03-08T00:01:22;68.30;;;25.23;;
239;SDS011;104;53.590;10.004;2024-03-08T00:03:50;59.00;;;24.23;;
239;SDS011;104;53.590;10.004;2024-03-08T00:06:17;52.67;;;24.50;;
239;SDS011;104;53.590;10.004;2024-03-08T00:08:45;67.37;;;24.97;;
239;SDS011;104;53.590;10.004;2024-03-08T00:11:12;54.80;;;24.13;;
239;SDS011;104;53.590;10.004;2024-03-08T00:13:39;62.20;;;24.07;;
239;SDS011;104;53.590;10.004;2024-03-08T00:16:07;63.30;;;25.10;;
239;SDS011;104;53.590;10.004;2024-03-08T00:18:36;64.57;;;24.67;;
239;SDS011;104;53.590;10.004;2024-03-08T00:21:03;56.87;;;23.80;;
239;SDS011;104;53.590;10.004;2024-03-08T00:23:30;57.47;;;24.27;;
239;SDS011;104;53.590;10.004;2024-03-08T00:25:58;64.50;;;22.93;;
239;SDS011;104;53.590;10.004;2024-03-08T00:28:25;57.10;;;24.67;;
239;SDS011;104;53.590;10.004;2024-03-08T00:30:53;58.77;;;24.47;;
239;SDS011;104;53.590;10.004;2024-03-08T00:46:14;59.10;;;24.73;;
239;SDS011;104;53.590;10.004;2024-03-08T00:48:42;64.63;;;25.97;;
239;SDS011;104;53.590;10.004;2024-03-08T00:51:09;59.20;;;24.60;;
239;SDS011;104;53.590;10.004;2024-03-08T00:53:36;66.13;;;24.87;;
239;SDS011;104;53.590;10.004;2024-03-08T00:56:04;58.37;;;24.47;;
239;SDS011;104;53.590;10.004;2024-03-08T00:58:31;59.90;;;24.03;;
239;SDS011;104;53.590;10.004;2024-03-08T01:00:58;62.70;;;24.67;;
239;SDS011;104;53.590;10.004;2024-03-08T01:03:27;54.83;;;23.50;;
239;SDS011;104;53.590;10.004;2024-03-08T01:05:56;62.30;;;25.60;;
239;SDS011;104;53.590;10.004;2024-03-08T01:08:26;61.03;;;24.60;;
239;SDS011;104;53.590;10.004;2024-03-08T01:10:53;59.63;;;24.60;;
239;SDS011;104;53.590;10.004;2024-03-08T01:13:21;59.20;;;23.80;;
239;SDS011;104;53.590;10.004;2024-03-08T01:22:22;60.27;;;24.97;;
239;SDS011;104;53.590;10.004;2024-03-08T01:24:54;62.23;;;25.23;;
239;SDS011;104;53.590;10.004;2024-03-08T01:27:28;69.60;;;25.77;;
239;SDS011;104;53.590;10.004;2024-03-08T01:29:56;65.73;;;25.70;;
239;SDS011;104;53.590;10.004;2024-03-08T01:32:23;64.40;;;25.80;;
239;SDS011;104;53.590;10.004;2024-03-08T01:34:50;63.80;;;26.80;;
239;SDS011;104;53.590;10.004;2024-03-08T01:37:19;71.60;;;25.40;;
239;SDS011;104;53.590;10.004;2024-03-08T01:39:46;70.13;;;26.30;;
239;SDS011;104;53.590;10.004;2024-03-08T01:42:13;64.50;;;25.80;;
239;SDS011;104;53.590;10.004;2024-03-08T01:44:45;62.30;;;25.70;;
239;SDS011;104;53.590;10.004;2024-03-08T01:47:25;63.77;;;25.77;;
239;SDS011;104;53.590;10.004;2024-03-08T01:50:13;63.33;;;25.33;;
239;SDS011;104;53.590;10.004;2024-03-08T01:52:56;68.33;;;24.13;;
239;SDS011;104;53.590;10.004;2024-03-08T01:55:40;54.60;;;23.93;;
239;SDS011;104;53.590;10.004;2024-03-08T01:58:14;65.80;;;25.60;;
239;SDS011;104;53.590;10.004;2024-03-08T02:00:42;60.97;;;23.97;;
239;SDS011;104;53.590;10.004;2024-03-08T02:03:24;62.77;;;25.67;;
239;SDS011;104;53.590;10.004;2024-03-08T02:06:02;61.80;;;24.73;;
239;SDS011;104;53.590;10.004;2024-03-08T02:08:43;67.90;;;24.77;;
239;SDS011;104;53.590;10.004;2024-03-08T02:11:12;61.73;;;23.47;;
239;SDS011;104;53.590;10.004;2024-03-08T02:13:41;57.47;;;24.17;;
239;SDS011;104;53.590;10.004;2024-03-08T02:16:08;60.23;;;25.40;;
239;SDS011;104;53.590;10.004;2024-03-08T02:18:36;59.80;;;23.53;;
239;SDS011;104;53.590;10.004;2024-03-08T02:21:11;63.37;;;24.77;;
239;SDS011;104;53.590;10.004;2024-03-08T02:23:44;59.87;;;25.30;;
239;SDS011;104;53.590;10.004;2024-03-08T02:26:11;62.07;;;24.90;;
239;SDS011;104;53.590;10.004;2024-03-08T02:28:46;59.00;;;25.20;;
239;SDS011;104;53.590;10.004;2024-03-08T02:31:14;61.53;;;25.63;;
239;SDS011;104;53.590;10.004;2024-03-08T02:33:41;62.83;;;24.73;;
239;SDS011;104;53.590;10.004;2024-03-08T02:36:10;64.37;;;26.30;;
239;SDS011;104;53.590;10.004;2024-03-08T02:38:37;63.50;;;25.13;;
239;SDS011;104;53.590;10.004;2024-03-08T02:41:06;63.83;;;27.10;;
239;SDS011;104;53.590;10.004;2024-03-08T02:43:33;58.60;;;24.77;;
239;SDS011;104;53.590;10.004;2024-03-08T02:46:01;67.80;;;27.30;;
239;SDS011;104;53.590;10.004;2024-03-08T02:48:30;67.23;;;26.77;;
239;SDS011;104;53.590;10.004;2024-03-08T02:50:57;61.87;;;24.73;;
239;SDS011;104;53.590;10.004;2024-03-08T02:53:26;60.60;;;24.73;;
239;SDS011;104;53.590;10.004;2024-03-08T02:55:53;62.97;;;25.00;;
239;SDS011;104;53.590;10.004;2024-03-08T02:58:20;59.10;;;25.23;;
239;SDS011;104;53.590;10.004;2024-03-08T03:00:48;59.90;;;25.23;;
239;SDS011;104;53.590;10.004;2024-03-08T03:03:15;59.80;;;24.47;;
239;SDS011;104;53.590;10.004;2024-03-08T03:05:42;61.33;;;25.00;;
239;SDS011;104;53.590;10.004;2024-03-08T03:08:10;62.30;;;24.57;;
239;SDS011;104;53.590;10.004;2024-03-08T03:10:39;58.67;;;24.27;;
239;SDS011;104;53.590;10.004;2024-03-08T03:13:06;62.37;;;24.70;;
239;SDS011;104;53.590;10.004;2024-03-08T03:15:34;57.10;;;24.53;;
239;SDS011;104;53.590;10.004;2024-03-08T03:18:02;60.53;;;26.30;;
239;SDS011;104;53.590;10.004;2024-03-08T03:20:33;65.87;;;24.93;;
239;SDS011;104;53.590;10.004;2024-03-08T03:23:05;61.73;;;24.67;;
239;SDS011;104;53.590;10.004;2024-03-08T03:25:33;53.80;;;23.73;;
239;SDS011;104;53.590;10.004;2024-03-08T03:28:03;58.67;;;24.70;;
239;SDS011;104;53.590;10.004;2024-03-08T03:30:32;58.20;;;24.10;;
239;SDS011;104;53.590;10.004;2024-03-08T03:33:00;62.63;;;24.83;;
239;SDS011;104;53.590;10.004;2024-03-08T03:35:32;63.37;;;25.53;;
239;SDS011;104;53.590;10.004;2024-03-08T03:38:01;57.50;;;25.00;;
239;SDS011;104;53.590;10.004;2024-03-08T03:40:31;62.13;;;25.63;;
239;SDS011;104;53.590;10.004;2024-03-08T03:42:59;68.07;;;25.40;;
239;SDS011;104;53.590;10.004;2024-03-08T03:45:29;60.00;;;23.90;;
239;SDS011;104;53.590;10.004;2024-03-08T03:47:59;60.97;;;25.33;;
239;SDS011;104;53.590;10.004;2024-03-08T03:50:27;55.13;;;23.80;;
239;SDS011;104;53.590;10.004;2024-03-08T03:53:04;55.77;;;23.30;;
239;SDS011;104;53.590;10.004;2024-03-08T03:55:35;67.70;;;26.27;;
239;SDS011;104;53.590;10.004;2024-03-08T03:58:03;57.47;;;24.37;;
239;SDS011;104;53.590;10.004;2024-03-08T04:00:35;63.60;;;25.77;;
239;SDS011;104;53.590;10.004;2024-03-08T04:03:02;58.47;;;26.10;;
239;SDS011;104;53.590;10.004;2024-03-08T04:05:30;62.83;;;26.80;;
239;SDS011;104;53.590;10.004;2024-03-08T04:07:57;62.50;;;26.30;;
239;SDS011;104;53.590;10.004;2024-03-08T04:10:25;58.93;;;25.30;;
239;SDS011;104;53.590;10.004;2024-03-08T04:15:38;63.73;;;25.70;;
239;SDS011;104;53.590;10.004;2024-03-08T04:18:12;65.53;;;26.43;;
239;SDS011;104;53.590;10.004;2024-03-08T04:20:45;64.07;;;27.00;;
239;SDS011;104;53.590;10.004;2024-03-08T04:23:12;65.93;;;25.97;;
239;SDS011;104;53.590;10.004;2024-03-08T04:25:41;68.40;;;25.77;;
239;SDS011;104;53.590;10.004;2024-03-08T04:28:09;69.63;;;26.90;;
239;SDS011;104;53.590;10.004;2024-03-08T04:30:37;63.90;;;26.30;;
239;SDS011;104;53.590;10.004;2024-03-08T04:33:05;67.80;;;27.30;;
239;SDS011;104;53.590;10.004;2024-03-08T04:35:33;64.83;;;25.83;;
239;SDS011;104;53.590;10.004;2024-03-08T04:38:01;66.20;;;27.10;;
239;SDS011;104;53.590;10.004;2024-03-08T04:40:30;63.67;;;25.33;;
239;SDS011;104;53.590;10.004;2024-03-08T04:42:57;62.13;;;25.10;;
239;SDS011;104;53.590;10.004;2024-03-08T04:45:25;63.57;;;25.30;;
239;SDS011;104;53.590;10.004;2024-03-08T04:47:53;63.27;;;25.70;;
239;SDS011;104;53.590;10.004;2024-03-08T04:50:21;58.00;;;25.10;;
239;SDS011;104;53.590;10.004;2024-03-08T04:52:48;70.50;;;27.00;;
239;SDS011;104;53.590;10.004;2024-03-08T04:55:16;67.47;;;26.37;;
239;SDS011;104;53.590;10.004;2024-03-08T04:57:46;65.00;;;25.77;;
239;SDS011;104;53.590;10.004;2024-03-08T05:00:16;68.13;;;27.73;;
239;SDS011;104;53.590;10.004;2024-03-08T05:02:44;68.33;;;27.53;;
239;SDS011;104;53.590;10.004;2024-03-08T05:05:11;70.47;;;28.40;;
239;SDS011;104;53.590;10.004;2024-03-08T05:07:40;69.93;;;26.43;;
239;SDS011;104;53.590;10.004;2024-03-08T05:10:08;63.57;;;27.00;;
239;SDS011;104;53.590;10.004;2024-03-08T05:12:36;66.83;;;26.20;;
239;SDS011;104;53.590;10.004;2024-03-08T05:15:04;67.47;;;27.87;;
239;SDS011;104;53.590;10.004;2024-03-08T05:17:32;63.50;;;27.30;;
239;SDS011;104;53.590;10.004;2024-03-08T05:19:59;73.90;;;26.07;;
239;SDS011;104;53.590;10.004;2024-03-08T05:22:26;59.47;;;25.47;;
239;SDS011;104;53.590;10.004;2024-03-08T05:24:55;76.97;;;26.43;;
239;SDS011;104;53.590;10.004;2024-03-08T05:27:22;54.80;;;24.73;;
239;SDS011;104;53.590;10.004;2024-03-08T05:29:53;74.97;;;26.70;;
239;SDS011;104;53.590;10.004;2024-03-08T05:32:23;68.23;;;25.70;;
239;SDS011;104;53.590;10.004;2024-03-08T05:34:51;72.40;;;27.40;;
239;SDS011;104;53.590;10.004;2024-03-08T05:37:19;70.67;;;25.60;;
239;SDS011;104;53.590;10.004;2024-03-08T05:39:46;69.67;;;26.33;;
239;SDS011;104;53.590;10.004;2024-03-08T05:42:15;67.57;;;26.80;;
239;SDS011;104;53.590;10.004;2024-03-08T05:44:42;69.27;;;25.77;;
239;SDS011;104;53.590;10.004;2024-03-08T05:47:09;68.03;;;27.00;;
239;SDS011;104;53.590;10.004;2024-03-08T05:49:36;64.47;;;26.33;;
239;SDS011;104;53.590;10.004;2024-03-08T05:52:04;65.57;;;25.90;;
239;SDS011;104;53.590;10.004;2024-03-08T05:54:31;66.33;;;27.50;;
239;SDS011;104;53.590;10.004;2024-03-08T05:56:58;64.63;;;26.07;;
239;SDS011;104;53.590;10.004;2024-03-08T05:59:31;62.83;;;25.20;;
239;SDS011;104;53.590;10.004;2024-03-08T06:01:58;64.60;;;25.67;;
239;SDS011;104;53.590;10.004;2024-03-08T06:04:31;86.27;;;27.20;;
239;SDS011;104;53.590;10.004;2024-03-08T06:06:58;66.60;;;26.10;;
239;SDS011;104;53.590;10.004;2024-03-08T06:09:31;75.13;;;28.30;;
239;SDS011;104;53.590;10.004;2024-03-08T06:11:58;69.13;;;27.07;;
239;SDS011;104;53.590;10.004;2024-03-08T06:14:31;68.30;;;27.10;;
239;SDS011;104;53.590;10.004;2024-03-08T06:16:58;68.60;;;28.07;;
239;SDS011;104;53.590;10.004;2024-03-08T06:19:27;72.40;;;27.90;;
239;SDS011;104;53.590;10.004;2024-03-08T06:21:54;69.67;;;27.43;;
239;SDS011;104;53.590;10.004;2024-03-08T06:24:22;61.20;;;26.23;;
239;SDS011;104;53.590;10.004;2024-03-08T06:26:49;64.60;;;25.87;;
239;SDS011;104;53.590;10.004;2024-03-08T06:29:16;64.97;;;25.90;;
239;SDS011;104;53.590;10.004;2024-03-08T06:31:45;55.87;;;26.07;;
239;SDS011;104;53.590;10.004;2024-03-08T06:34:12;62.60;;;25.93;;
239;SDS011;104;53.590;10.004;2024-03-08T06:36:41;58.60;;;25.93;;
239;SDS011;104;53.590;10.004;2024-03-08T06:39:08;61.30;;;25.17;;
239;SDS011;104;53.590;10.004;2024-03-08T06:41:35;55.23;;;24.37;;
239;SDS011;104;53.590;10.004;2024-03-08T06:44:03;63.87;;;26.37;;
239;SDS011;104;53.590;10.004;2024-03-08T06:46:30;58.70;;;25.57;;
239;SDS011;104;53.590;10.004;2024-03-08T06:49:00;66.50;;;27.93;;
239;SDS011;104;53.590;10.004;2024-03-08T06:51:31;61.60;;;26.13;;
239;SDS011;104;53.590;10.004;2024-03-08T06:53:58;57.33;;;25.47;;
239;SDS011;104;53.590;10.004;2024-03-08T06:56:26;69.03;;;27.23;;
239;SDS011;104;53.590;10.004;2024-03-08T06:58:54;68.50;;;26.80;;
239;SDS011;104;53.590;10.004;2024-03-08T07:01:38;59.93;;;26.33;;
239;SDS011;104;53.590;10.004;2024-03-08T07:04:07;68.80;;;28.27;;
239;SDS011;104;53.590;10.004;2024-03-08T07:06:37;62.43;;;26.50;;
239;SDS011;104;53.590;10.004;2024-03-08T07:09:06;64.57;;;25.90;;
239;SDS011;104;53.590;10.004;2024-03-08T07:14:22;67.73;;;27.27;;
239;SDS011;104;53.590;10.004;2024-03-08T07:16:50;56.60;;;26.60;;
239;SDS011;104;53.590;10.004;2024-03-08T07:19:19;67.60;;;25.87;;
239;SDS011;104;53.590;10.004;2024-03-08T07:21:48;59.70;;;25.87;;
239;SDS011;104;53.590;10.004;2024-03-08T07:24:15;61.73;;;26.30;;
239;SDS011;104;53.590;10.004;2024-03-08T07:27:03;58.07;;;25.23;;
239;SDS011;104;53.590;10.004;2024-03-08T07:29:30;66.20;;;26.93;;
239;SDS011;104;53.590;10.004;2024-03-08T07:31:57;71.93;;;25.20;;
239;SDS011;104;53.590;10.004;2024-03-08T07:34:38;60.83;;;25.93;;
239;SDS011;104;53.590;10.004;2024-03-08T07:37:06;63.17;;;25.90;;
239;SDS011;104;53.590;10.004;2024-03-08T07:39:36;58.83;;;25.83;;
239;SDS011;104;53.590;10.004;2024-03-08T07:42:04;57.80;;;26.33;;
239;SDS011;104;53.590;10.004;2024-03-08T07:44:31;63.40;;;25.97;;
239;SDS011;104;53.590;10.004;2024-03-08T07:46:59;64.10;;;26.80;;
239;SDS011;104;53.590;10.004;2024-03-08T07:49:26;57.03;;;23.37;;
239;SDS011;104;53.590;10.004;2024-03-08T07:51:55;54.20;;;23.73;;
239;SDS011;104;53.590;10.004;2024-03-08T07:54:22;51.33;;;22.00;;
239;SDS011;104;53.590;10.004;2024-03-08T07:56:50;47.80;;;20.00;;
239;SDS011;104;53.590;10.004;2024-03-08T07:59:18;49.83;;;21.60;;
239;SDS011;104;53.590;10.004;2024-03-08T08:01:46;45.33;;;19.57;;
239;SDS011;104;53.590;10.004;2024-03-08T08:04:13;49.13;;;21.17;;
239;SDS011;104;53.590;10.004;2024-03-08T08:06:43;43.37;;;20.00;;
239;SDS011;104;53.590;10.004;2024-03-08T08:09:11;50.90;;;19.47;;
239;SDS011;104;53.590;10.004;2024-03-08T08:11:40;42.20;;;18.57;;
239;SDS011;104;53.590;10.004;2024-03-08T08:14:09;45.57;;;20.00;;
239;SDS011;104;53.590;10.004;2024-03-08T08:16:37;38.03;;;16.83;;
239;SDS011;104;53.590;10.004;2024-03-08T08:19:09;50.03;;;18.60;;
239;SDS011;104;53.590;10.004;2024-03-08T08:21:37;40.17;;;17.60;;
239;SDS011;104;53.590;10.004;2024-03-08T08:24:05;43.10;;;18.67;;
239;SDS011;104;53.590;10.004;2024-03-08T08:26:34;44.20;;;18.90;;
239;SDS011;104;53.590;10.004;2024-03-08T08:29:01;38.80;;;17.03;;
239;SDS011;104;53.590;10.004;2024-03-08T08:31:29;39.57;;;18.27;;
239;SDS011;104;53.590;10.004;2024-03-08T08:33:57;44.20;;;17.30;;
239;SDS011;104;53.590;10.004;2024-03-08T08:36:24;38.47;;;16.77;;
239;SDS011;104;53.590;10.004;2024-03-08T08:38:54;38.93;;;17.37;;
239;SDS011;104;53.590;10.004;2024-03-08T08:41:23;41.30;;;16.70;;
239;SDS011;104;53.590;10.004;2024-03-08T08:43:53;42.93;;;17.90;;
239;SDS011;104;53.590;10.004;2024-03-08T08:46:20;44.90;;;18.27;;
239;SDS011;104;53.590;10.004;2024-03-08T08:48:47;40.43;;;16.13;;
239;SDS011;104;53.590;10.004;2024-03-08T08:51:14;39.13;;;16.70;;
239;SDS011;104;53.590;10.004;2024-03-08T09:19:44;41.00;;;18.40;;
239;SDS011;104;53.590;10.004;2024-03-08T09:22:12;37.10;;;17.90;;
239;SDS011;104;53.590;10.004;2024-03-08T09:24:39;38.80;;;17.67;;
239;SDS011;104;53.590;10.004;2024-03-08T09:27:08;38.57;;;17.53;;
239;SDS011;104;53.590;10.004;2024-03-08T09:29:35;36.30;;;16.57;;
239;SDS011;104;53.590;10.004;2024-03-08T09:32:03;34.63;;;16.67;;
239;SDS011;104;53.590;10.004;2024-03-08T09:34:30;39.83;;;18.70;;
239;SDS011;104;53.590;10.004;2024-03-08T09:36:59;33.27;;;16.77;;
239;SDS011;104;53.590;10.004;2024-03-08T09:39:26;37.17;;;17.30;;
239;SDS011;104;53.590;10.004;2024-03-08T09:41:53;36.17;;;17.10;;
239;SDS011;104;53.590;10.004;2024-03-08T09:44:21;34.87;;;16.90;;
239;SDS011;104;53.590;10.004;2024-03-08T09:46:48;50.40;;;16.80;;
239;SDS011;104;53.590;10.004;2024-03-08T09:49:18;35.43;;;16.37;;
239;SDS011;104;53.590;10.004;2024-03-08T09:51:45;33.20;;;16.47;;
239;SDS011;104;53.590;10.004;2024-03-08T09:54:14;32.33;;;16.23;;
239;SDS011;104;53.590;10.004;2024-03-08T09:56:42;35.00;;;16.60;;
239;SDS011;104;53.590;10.004;2024-03-08T09:59:10;32.37;;;16.23;;
239;SDS011;104;53.590;10.004;2024-03-08T10:02:07;38.80;;;18.00;;
239;SDS011;104;53.590;10.004;2024-03-08T10:04:35;37.43;;;17.20;;
239;SDS011;104;53.590;10.004;2024-03-08T10:07:02;36.10;;;15.90;;
239;SDS011;104;53.590;10.004;2024-03-08T10:09:33;38.00;;;17.80;;
239;SDS011;104;53.590;10.004;2024-03-08T10:12:01;32.80;;;16.67;;
239;SDS011;104;53.590;10.004;2024-03-08T10:14:28;35.47;;;16.97;;
239;SDS011;104;53.590;10.004;2024-03-08T10:16:56;39.67;;;19.63;;
239;SDS011;104;53.590;10.004;2024-03-08T10:19:25;41.30;;;17.70;;
239;SDS011;104;53.590;10.004;2024-03-08T10:21:52;36.73;;;18.43;;
239;SDS011;104;53.590;10.004;2024-03-08T10:24:22;41.53;;;18.13;;
239;SDS011;104;53.590;10.004;2024-03-08T10:26:52;32.10;;;16.00;;
239;SDS011;104;53.590;10.004;2024-03-08T10:29:20;36.50;;;16.37;;
239;SDS011;104;53.590;10.004;2024-03-08T10:31:47;36.40;;;18.23;;
239;SDS011;104;53.590;10.004;2024-03-08T10:34:16;34.27;;;16.70;;
239;SDS011;104;53.590;10.004;2024-03-08T10:36:44;36.53;;;15.50;;
239;SDS011;104;53.590;10.004;2024-03-08T10:39:17;34.00;;;16.27;;
239;SDS011;104;53.590;10.004;2024-03-08T10:41:49;32.87;;;16.17;;
239;SDS011;104;53.590;10.004;2024-03-08T10:44:24;32.70;;;16.20;;
239;SDS011;104;53.590;10.004;2024-03-08T10:47:00;33.30;;;16.27;;
239;SDS011;104;53.590;10.004;2024-03-08T10:49:30;34.13;;;17.37;;
239;SDS011;104;53.590;10.004;2024-03-08T10:52:00;30.57;;;15.67;;
239;SDS011;104;53.590;10.004;2024-03-08T10:54:28;33.20;;;16.43;;
239;SDS011;104;53.590;10.004;2024-03-08T10:56:57;33.00;;;17.03;;
239;SDS011;104;53.590;10.004;2024-03-08T10:59:26;32.37;;;17.50;;
239;SDS011;104;53.590;10.004;2024-03-08T11:01:53;33.60;;;16.90;;
239;SDS011;104;53.590;10.004;2024-03-08T11:04:21;33.07;;;17.00;;
239;SDS011;104;53.590;10.004;2024-03-08T11:06:50;33.30;;;16.53;;
239;SDS011;104;53.590;10.004;2024-03-08T11:09:28;34.37;;;15.50;;
239;SDS011;104;53.590;10.004;2024-03-08T11:14:46;29.90;;;16.23;;
239;SDS011;104;53.590;10.004;2024-03-08T11:17:15;39.57;;;17.47;;
239;SDS011;104;53.590;10.004;2024-03-08T11:19:47;33.83;;;17.27;;
239;SDS011;104;53.590;10.004;2024-03-08T11:22:28;34.70;;;17.00;;
239;SDS011;104;53.590;10.004;2024-03-08T11:24:58;32.80;;;15.90;;
239;SDS011;104;53.590;10.004;2024-03-08T11:27:30;30.10;;;16.40;;
239;SDS011;104;53.590;10.004;2024-03-08T11:30:02;34.20;;;16.00;;
239;SDS011;104;53.590;10.004;2024-03-08T11:32:36;35.43;;;15.00;;
239;SDS011;104;53.590;10.004;2024-03-08T11:35:05;31.03;;;14.90;;
239;SDS011;104;53.590;10.004;2024-03-08T11:37:34;34.87;;;16.30;;
239;SDS011;104;53.590;10.004;2024-03-08T11:40:01;31.63;;;15.50;;
239;SDS011;104;53.590;10.004;2024-03-08T11:42:30;26.83;;;13.93;;
239;SDS011;104;53.590;10.004;2024-03-08T11:44:57;32.53;;;14.50;;
239;SDS011;104;53.590;10.004;2024-03-08T11:47:26;31.20;;;15.47;;
239;SDS011;104;53.590;10.004;2024-03-08T11:49:54;32.80;;;14.57;;
239;SDS011;104;53.590;10.004;2024-03-08T11:52:21;30.03;;;14.00;;
239;SDS011;104;53.590;10.004;2024-03-08T11:54:51;32.90;;;15.33;;
239;SDS011;104;53.590;10.004;2024-03-08T11:57:19;30.17;;;14.40;;
239;SDS011;104;53.590;10.004;2024-03-08T11:59:49;29.13;;;13.70;;
239;SDS011;104;53.590;10.004;2024-03-08T12:02:17;75.00;;;38.50;;
239;SDS011;104;53.590;10.004;2024-03-08T12:04:46;25.47;;;13.60;;
239;SDS011;104;53.590;10.004;2024-03-08T12:07:13;35.33;;;14.90;;
239;SDS011;104;53.590;10.004;2024-03-08T12:09:44;34.20;;;15.43;;
239;SDS011;104;53.590;10.004;2024-03-08T12:12:13;25.30;;;14.00;;
239;SDS011;104;53.590;10.004;2024-03-08T12:14:42;27.53;;;15.30;;
239;SDS011;104;53.590;10.004;2024-03-08T12:17:10;25.67;;;14.40;;
239;SDS011;104;53.590;10.004;2024-03-08T12:19:39;30.03;;;13.37;;
239;SDS011;104;53.590;10.004;2024-03-08T12:22:10;24.80;;;13.67;;
239;SDS011;104;53.590;10.004;2024-03-08T12:24:38;25.17;;;13.77;;
239;SDS011;104;53.590;10.004;2024-03-08T12:27:17;23.07;;;13.03;;
239;SDS011;104;53.590;10.004;2024-03-08T12:29:45;24.33;;;13.80;;
239;SDS011;104;53.590;10.004;2024-03-08T12:32:12;22.70;;;13.07;;
239;SDS011;104;53.590;10.004;2024-03-08T12:34:39;22.00;;;12.23;;
239;SDS011;104;53.590;10.004;2024-03-08T12:37:07;24.97;;;13.67;;
239;SDS011;104;53.590;10.004;2024-03-08T12:39:36;23.60;;;12.63;;
239;SDS011;104;53.590;10.004;2024-03-08T12:42:04;25.83;;;14.27;;
239;SDS011;104;53.590;10.004;2024-03-08T12:44:32;35.07;;;14.50;;
239;SDS011;104;53.590;10.004;2024-03-08T12:47:00;22.80;;;12.47;;
239;SDS011;104;53.590;10.004;2024-03-08T12:49:27;20.57;;;11.40;;
239;SDS011;104;53.590;10.004;2024-03-08T12:51:56;22.03;;;11.37;;
239;SDS011;104;53.590;10.004;2024-03-08T12:54:23;26.40;;;12.17;;
239;SDS011;104;53.590;10.004;2024-03-08T12:56:52;15.40;;;10.07;;
239;SDS011;104;53.590;10.004;2024-03-08T12:59:19;22.37;;;12.10;;
239;SDS011;104;53.590;10.004;2024-03-08T13:01:48;17.63;;;10.00;;
239;SDS011;104;53.590;10.004;2024-03-08T13:04:16;25.03;;;12.00;;
239;SDS011;104;53.590;10.004;2024-03-08T13:06:59;35.57;;;14.10;;
239;SDS011;104;53.590;10.004;2024-03-08T13:09:26;23.07;;;11.43;;
239;SDS011;104;53.590;10.004;2024-03-08T13:11:55;28.33;;;10.80;;
239;SDS011;104;53.590;10.004;2024-03-08T13:14:25;27.73;;;10.77;;
239;SDS011;104;53.590;10.004;2024-03-08T13:16:57;21.20;;;11.63;;
239;SDS011;104;53.590;10.004;2024-03-08T13:19:24;20.00;;;11.00;;
239;SDS011;104;53.590;10.004;2024-03-08T13:21:53;29.53;;;12.50;;
239;SDS011;104;53.590;10.004;2024-03-08T13:24:21;28.13;;;12.00;;
239;SDS011;104;53.590;10.004;2024-03-08T13:26:49;21.43;;;11.60;;
239;SDS011;104;53.590;10.004;2024-03-08T13:29:18;25.03;;;12.53;;
239;SDS011;104;53.590;10.004;2024-03-08T13:31:46;23.70;;;11.97;;
239;SDS011;104;53.590;10.004;2024-03-08T13:34:16;27.17;;;12.10;;
239;SDS011;104;53.590;10.004;2024-03-08T13:36:44;24.40;;;12.83;;
239;SDS011;104;53.590;10.004;2024-03-08T13:39:11;24.70;;;11.40;;
239;SDS011;104;53.590;10.004;2024-03-08T13:41:41;23.43;;;12.27;;
239;SDS011;104;53.590;10.004;2024-03-08T13:44:10;19.53;;;11.50;;
239;SDS011;104;53.590;10.004;2024-03-08T13:46:38;20.13;;;11.13;;
239;SDS011;104;53.590;10.004;2024-03-08T13:49:07;22.23;;;10.80;;
239;SDS011;104;53.590;10.004;2024-03-08T13:51:48;22.37;;;11.73;;
239;SDS011;104;53.590;10.004;2024-03-08T13:54:15;19.90;;;11.37;;
239;SDS011;104;53.590;10.004;2024-03-08T13:56:43;22.50;;;11.17;;
239;SDS011;104;53.590;10.004;2024-03-08T13:59:11;23.53;;;10.80;;
239;SDS011;104;53.590;10.004;2024-03-08T14:01:40;21.07;;;11.70;;
239;SDS011;104;53.590;10.004;2024-03-08T14:04:08;26.47;;;13.43;;
239;SDS011;104;53.590;10.004;2024-03-08T14:06:39;21.10;;;11.53;;
239;SDS011;104;53.590;10.004;2024-03-08T14:09:06;15.97;;;9.77;;
239;SDS011;104;53.590;10.004;2024-03-08T14:11:34;24.87;;;10.53;;
239;SDS011;104;53.590;10.004;2024-03-08T14:14:03;21.23;;;11.03;;
239;SDS011;104;53.590;10.004;2024-03-08T14:16:30;19.47;;;10.20;;
239;SDS011;104;53.590;10.004;2024-03-08T14:18:58;23.77;;;12.00;;
239;SDS011;104;53.590;10.004;2024-03-08T14:21:30;25.83;;;10.93;;
239;SDS011;104;53.590;10.004;2024-03-08T14:23:58;15.97;;;10.30;;
239;SDS011;104;53.590;10.004;2024-03-08T14:26:26;18.60;;;10.60;;
239;SDS011;104;53.590;10.004;2024-03-08T14:28:53;16.40;;;9.80;;
239;SDS011;104;53.590;10.004;2024-03-08T14:31:21;21.20;;;10.27;;
239;SDS011;104;53.590;10.004;2024-03-08T14:33:50;14.90;;;8.97;;
239;SDS011;104;53.590;10.004;2024-03-08T14:36:19;19.50;;;10.70;;
239;SDS011;104;53.590;10.004;2024-03-08T14:38:47;26.57;;;10.77;;
239;SDS011;104;53.590;10.004;2024-03-08T14:41:15;20.47;;;9.10;;
239;SDS011;104;53.590;10.004;2024-03-08T14:43:45;21.40;;;10.97;;
239;SDS011;104;53.590;10.004;2024-03-08T14:46:13;15.37;;;9.63;;
239;SDS011;104;53.590;10.004;2024-03-08T14:48:42;17.07;;;9.47;;
239;SDS011;104;53.590;10.004;2024-03-08T14:51:10;29.33;;;9.20;;
239;SDS011;104;53.590;10.004;2024-03-08T14:53:41;19.70;;;10.57;;
239;SDS011;104;53.590;10.004;2024-03-08T14:56:10;16.93;;;10.67;;
239;SDS011;104;53.590;10.004;2024-03-08T14:58:41;19.67;;;9.40;;
239;SDS011;104;53.590;10.004;2024-03-08T15:01:09;15.40;;;9.20;;
239;SDS011;104;53.590;10.004;2024-03-08T15:03:39;18.73;;;10.20;;
239;SDS011;104;53.590;10.004;2024-03-08T15:06:08;20.23;;;10.37;;
239;SDS011;104;53.590;10.004;2024-03-08T15:08:37;20.80;;;10.10;;
239;SDS011;104;53.590;10.004;2024-03-08T15:11:06;16.47;;;9.47;;
239;SDS011;104;53.590;10.004;2024-03-08T15:13:34;17.90;;;9.83;;
239;SDS011;104;53.590;10.004;2024-03-08T15:16:06;18.80;;;10.17;;
239;SDS011;104;53.590;10.004;2024-03-08T15:18:34;16.97;;;10.40;;
239;SDS011;104;53.590;10.004;2024-03-08T15:21:05;20.70;;;10.67;;
239;SDS011;104;53.590;10.004;2024-03-08T15:23:33;21.20;;;10.40;;
239;SDS011;104;53.590;10.004;2024-03-08T15:26:01;18.53;;;11.40;;
239;SDS011;104;53.590;10.004;2024-03-08T15:28:33;20.23;;;10.63;;
239;SDS011;104;53.590;10.004;2024-03-08T15:31:02;22.77;;;10.57;;
239;SDS011;104;53.590;10.004;2024-03-08T15:33:33;19.70;;;10.17;;
239;SDS011;104;53.590;10.004;2024-03-08T15:36:06;19.50;;;10.30;;
239;SDS011;104;53.590;10.004;2024-03-08T15:38:36;24.67;;;11.87;;
239;SDS011;104;53.590;10.004;2024-03-08T15:41:03;16.20;;;9.63;;
239;SDS011;104;53.590;10.004;2024-03-08T15:43:36;23.00;;;11.97;;
239;SDS011;104;53.590;10.004;2024-03-08T15:46:04;24.87;;;11.97;;
239;SDS011;104;53.590;10.004;2024-03-08T15:48:32;24.57;;;11.23;;
239;SDS011;104;53.590;10.004;2024-03-08T15:51:00;25.30;;;12.10;;
239;SDS011;104;53.590;10.004;2024-03-08T15:53:30;19.67;;;10.53;;
239;SDS011;104;53.590;10.004;2024-03-08T15:56:03;20.30;;;11.33;;
239;SDS011;104;53.590;10.004;2024-03-08T15:58:36;20.60;;;10.40;;
239;SDS011;104;53.590;10.004;2024-03-08T16:01:05;19.40;;;10.40;;
239;SDS011;104;53.590;10.004;2024-03-08T16:03:32;15.77;;;9.40;;
239;SDS011;104;53.590;10.004;2024-03-08T16:06:00;22.70;;;11.00;;
239;SDS011;104;53.590;10.004;2024-03-08T16:08:29;18.73;;;10.20;;